Station: Nowra  

  Atmospheric Gas Attenuation - ITU Rec 676-11   ----------------- dB/100km -----------------
Date Time Temp RH % AH g/m3 Dew Point Wind Direction Speed kph Gust kph Barometer mB Rainfall Since 9am 24GHz 47GHz 76GHz 122GHz 134GHz 241GHz
02/09 19:40 17.7 59 8.9 9.6 7 11 1013.3 0 20.0 25.3 39.1 102.5 97.4 335.5
02/09 19:30 17.4 59 8.74 9.3 9 11 1013.2 0 19.7 25.1 38.6 101.2 95.7 329.6
02/09 19:20 18.3 56 8.76 9.4 9 11 1013 0 19.7 24.9 38.2 100.3 94.9 326.7
02/09 19:10 19.5 51 8.56 9.1 9 13 1012.8 0 19.2 24.2 36.9 96.8 91.0 313.2
02/09 19:00 20.1 50 8.69 9.4 11 17 1012.6 0 19.5 24.3 37.1 97.3 91.8 316.4
02/09 18:50 20.1 50 8.69 9.4 13 17 1012.6 0 19.5 24.3 37.1 97.3 91.8 316.4
02/09 18:40 20.3 49 8.62 9.2 11 15 1012.6 0 19.3 24.1 36.7 96.4 90.8 312.6
02/09 18:30 20.6 48 8.59 9.2 9 20 1012.4 0 19.2 24.0 36.5 95.7 90.1 310.1
02/09 18:20 20.8 47 8.51 9.1 13 20 1012.3 0 19.1 23.8 36.1 94.7 88.9 306.0
02/09 18:10 20.7 48 8.64 9.3 13 17 1012.3 0 19.3 24.0 36.6 96.1 90.5 311.8
02/09 18:00 21.3 46 8.57 9.2 17 26 1012.3 0 19.2 23.8 36.1 94.7 89.0 306.6
02/09 17:50 21.7 45 8.58 9.3 19 28 1012.3 0 19.2 23.7 36.0 94.3 88.7 305.5
02/09 17:40 21.9 45 8.68 9.4 17 28 1012.3 0 19.4 23.8 36.2 95.1 89.7 308.9
02/09 17:30 22 45 8.73 9.5 13 20 1012.2 0 19.5 23.8 36.4 95.4 90.1 310.5
02/09 17:20 22.5 44 8.79 9.6 19 26 1012.1 0 19.6 23.8 36.4 95.4 90.3 311.1
02/09 17:10 22.8 42 8.53 9.2 20 37 1012 0 19.0 23.3 35.3 92.6 86.9 299.2
02/09 17:00 22.8 42 8.53 9.2 22 35 1012 0 19.0 23.3 35.3 92.6 86.9 299.2
02/09 16:50 23 40 8.22 8.7 28 41 1011.8 0 18.4 22.8 34.1 89.4 83.1 285.9
02/09 16:40 23.3 39 8.15 8.6 28 44 1011.7 0 18.2 22.6 33.7 88.4 81.9 282.0
02/09 16:30 23.9 38 8.22 8.7 33 44 1011.6 0 18.3 22.6 33.7 88.4 82.1 282.7
02/09 16:20 24.2 37 8.14 8.6 33 50 1011.6 0 18.1 22.4 33.3 87.4 80.9 278.5
02/09 16:06 24.1 37 8.1 8.5 33 37 1011.6 0 18.1 22.4 33.2 87.1 80.6 277.3
02/09 16:00 23.9 37 8 8.3 22 28 1011.6 0 17.9 22.3 33.0 86.4 79.6 274.0
02/09 15:50 24.6 35 7.88 8.1 30 52 1011.6 0 17.6 21.9 32.3 84.6 77.6 267.0
02/09 15:40 24.8 36 8.19 8.7 30 41 1011.6 0 18.2 22.3 33.3 87.2 80.9 278.4
02/09 15:30 24.5 36 8.06 8.5 26 41 1011.6 0 18.0 22.2 32.9 86.3 79.7 274.3
02/09 15:20 24.4 36 8.01 8.4 30 39 1011.7 0 17.9 22.2 32.8 86.0 79.3 272.7
02/09 15:10 24.4 36 8.01 8.4 35 44 1011.8 0 17.9 22.2 32.8 86.0 79.3 272.8
02/09 15:00 25.3 34 7.96 8.3 32 44 1011.7 0 17.7 21.9 32.3 84.6 77.8 267.8
02/09 14:50 25 34 7.83 8.1 35 44 1011.7 0 17.5 21.8 32.0 83.7 76.7 263.8
02/09 14:40 25.6 34 8.09 8.6 33 46 1011.7 0 18.0 22.0 32.6 85.4 79.0 271.9
02/09 14:30 25.6 34 8.09 8.6 33 46 1011.7 0 18.0 22.0 32.6 85.4 79.0 271.9
02/09 14:20 26 33 8.03 8.5 33 57 1011.5 0 17.8 21.8 32.2 84.5 77.9 268.2
02/09 14:07 25.5 35 8.29 8.9 26 30 1011.6 0 18.4 22.3 33.3 87.3 81.3 280.0
02/09 14:00 25.6 34 8.09 8.6 35 50 1011.5 0 18.0 22.0 32.6 85.4 79.0 271.8
02/09 13:50 26 35 8.52 9.4 24 30 1011.5 0 18.9 22.5 33.9 88.9 83.3 287.2
02/09 13:40 25.7 35 8.38 9.1 30 48 1011.6 0 18.6 22.4 33.5 87.9 82.1 282.8
02/09 13:30 25.7 35 8.38 9.1 30 46 1011.7 0 18.6 22.4 33.5 87.9 82.1 282.8
02/09 13:20 25.4 34 8 8.4 32 50 1011.9 0 17.8 21.9 32.4 84.9 78.2 269.1
02/09 13:06 25.7 35 8.38 9.1 28 32 1012.3 0 18.6 22.4 33.6 88.0 82.1 283.0
02/09 13:00 25.6 34 8.09 8.6 30 48 1012.4 0 18.0 22.0 32.6 85.5 79.0 272.0
02/09 12:50 25.8 34 8.19 8.8 28 39 1012.5 0 18.2 22.1 32.9 86.2 79.9 275.3
02/09 12:40 25.4 33 7.77 8 28 43 1012.7 0 17.3 21.6 31.7 82.9 75.7 260.4
02/09 12:30 25.1 33 7.64 7.7 33 48 1012.9 0 17.1 21.5 31.3 82.0 74.6 256.4
02/09 12:20 25.4 33 7.77 8 33 57 1013.1 0 17.3 21.6 31.7 82.9 75.7 260.5
02/09 12:10 25.5 33 7.81 8.1 28 41 1013.3 0 17.4 21.7 31.8 83.2 76.1 261.7
02/09 12:00 25.4 33 7.77 8 28 41 1013.4 0 17.3 21.7 31.7 82.9 75.8 260.5
02/09 11:50 25.4 34 8 8.4 28 35 1013.6 0 17.8 22.0 32.5 85.0 78.3 269.5
02/09 11:40 25.2 32 7.45 7.3 32 46 1013.8 0 16.7 21.3 30.7 80.3 72.5 249.0
02/09 11:30 25.3 33 7.73 7.9 30 39 1013.9 0 17.2 21.6 31.6 82.7 75.4 259.4
02/09 11:20 25.3 34 7.96 8.3 26 35 1014 0 17.7 22.0 32.4 84.8 78.0 268.3
02/09 11:10 25 33 7.6 7.6 28 43 1014 0 17.0 21.5 31.3 81.9 74.3 255.4
02/09 11:00 24.8 35 7.97 8.3 20 32 1014.1 0 17.8 22.1 32.6 85.4 78.6 270.4
02/09 10:50 24.4 35 7.79 8 26 35 1014.3 0 17.4 21.9 32.2 84.2 77.0 264.7
02/09 10:40 24.4 35 7.79 8 24 35 1014.3 0 17.4 21.9 32.2 84.2 77.0 264.7
02/09 10:30 24.3 38 8.41 9.1 13 24 1014.4 0 18.7 22.8 34.3 90.0 84.1 289.6
02/09 10:20 23.7 39 8.34 8.9 13 20 1014.5 0 18.6 22.9 34.3 90.0 83.9 288.9
02/09 10:10 23.2 42 8.73 9.6 15 19 1014.5 0 19.4 23.6 35.9 94.2 89.0 306.5
02/09 10:00 23.3 42 8.78 9.7 15 19 1014.7 0 19.5 23.6 36.1 94.6 89.4 308.3
02/09 09:50 22.9 42 8.58 9.3 19 26 1014.9 0 19.1 23.4 35.5 93.2 87.6 301.6
02/09 09:40 22.6 42 8.44 9 17 26 1014.9 0 18.8 23.3 35.2 92.2 86.3 297.0
02/09 09:30 22 43 8.34 8.9 20 28 1015.2 0 18.7 23.3 35.1 92.0 85.7 295.2
02/09 09:20 22 44 8.54 9.2 15 20 1015.4 0 19.1 23.6 35.8 93.9 88.1 303.5
02/09 09:10 21.5 44 8.3 8.7 17 26 1015.4 0 18.6 23.4 35.2 92.2 85.8 295.4
02/09 09:00 21.3 45 8.39 8.9 15 20 1015.6 0 18.8 23.6 35.6 93.3 87.1 299.9
02/09 08:50 20.9 47 8.56 9.2 15 22 1015.7 0 19.2 24.0 36.4 95.4 89.6 308.5
02/09 08:40 20.5 47 8.36 8.8 15 20 1015.8 0 18.8 23.8 35.8 93.9 87.7 301.7
02/09 08:30 20.5 47 8.36 8.8 15 20 1015.8 0 18.8 23.8 35.8 93.9 87.7 301.7
02/09 08:20 20.3 49 8.62 9.2 13 17 1015.7 0 19.3 24.2 36.9 96.7 91.0 313.4
02/09 08:10 19.9 50 8.59 9.2 13 20 1015.8 0 19.3 24.3 37.0 96.9 91.1 313.7
02/09 08:00 19.6 50 8.44 8.9 13 19 1015.7 0 19.0 24.1 36.5 95.8 89.6 308.4
02/09 07:50 19.3 51 8.46 8.9 11 15 1015.6 0 19.0 24.2 36.7 96.3 90.2 310.4
02/09 07:40 19.1 50 8.2 8.4 9 13 1015.6 0 18.5 23.9 35.9 94.0 87.3 300.1
02/09 07:30 18.5 52 8.23 8.5 11 19 1015.4 0 18.6 24.1 36.2 95.0 88.3 303.6
02/09 07:20 17.8 54 8.2 8.4 9 15 1015.4 0 18.5 24.2 36.4 95.5 88.7 305.0
02/09 07:10 16.9 58 8.34 8.6 9 11 1015.3 0 18.9 24.7 37.4 98.0 91.4 314.5
02/09 07:00 15.5 61 8.06 8 11 15 1015.1 0 18.4 24.6 36.9 96.8 89.5 307.6
02/09 06:50 16.1 59 8.09 8.1 9 13 1015.1 0 18.4 24.5 36.8 96.4 89.2 306.6
02/09 06:40 16 58 7.9 7.7 9 9 1015.1 0 18.0 24.2 36.1 94.6 86.9 298.6
02/09 06:30 16.1 57 7.81 7.6 7 11 1014.9 0 17.8 24.1 35.7 93.5 85.7 294.3
02/09 06:20 16.1 57 7.81 7.6 9 11 1015 0 17.8 24.1 35.7 93.5 85.7 294.3
02/09 06:10 16.4 56 7.82 7.6 9 15 1015.1 0 17.8 24.0 35.6 93.3 85.5 293.6
02/09 06:00 16.4 56 7.82 7.6 13 15 1014.9 0 17.8 24.0 35.6 93.3 85.5 293.6
02/09 05:50 16.6 55 7.77 7.5 9 13 1014.8 0 17.7 23.9 35.3 92.5 84.6 290.7
02/09 05:40 17 53 7.67 7.4 9 15 1015.2 0 17.5 23.6 34.8 91.1 83.0 285.0
02/09 05:30 16.8 54 7.72 7.4 13 15 1015.1 0 17.6 23.8 35.1 91.8 83.8 287.9
02/09 05:20 16.9 54 7.77 7.5 11 15 1015.1 0 17.7 23.8 35.2 92.2 84.4 289.7
02/09 05:10 17.1 53 7.71 7.5 9 13 1015 0 17.5 23.7 34.9 91.4 83.4 286.3
02/09 05:00 17.9 49 7.48 7 9 13 1015.2 0 17.0 23.1 33.7 88.3 79.8 273.8
02/09 04:50 18.3 48 7.5 7.1 6 9 1015.3 0 17.1 23.1 33.6 88.0 79.6 273.3
02/09 04:40 18.2 48 7.46 7 7 9 1015.1 0 17.0 23.0 33.5 87.7 79.3 272.0
02/09 04:30 18.3 48 7.5 7.1 9 13 1015.3 0 17.1 23.1 33.6 88.0 79.6 273.3
02/09 04:20 18.5 48 7.59 7.3 11 17 1015.7 0 17.2 23.1 33.9 88.7 80.5 276.5
02/09 04:10 18.4 48 7.55 7.2 15 20 1015.6 0 17.2 23.1 33.8 88.4 80.2 275.2
02/09 04:00 19 46 7.5 7.1 13 19 1015.4 0 17.0 22.9 33.4 87.3 79.0 271.0
02/09 03:50 19 45 7.33 6.8 13 20 1015.2 0 16.7 22.6 32.7 85.6 76.9 263.9
02/09 03:40 18.8 46 7.41 6.9 15 19 1015.1 0 16.8 22.8 33.1 86.6 78.1 267.9
02/09 03:30 18.7 47 7.52 7.2 17 22 1015 0 17.1 23.0 33.5 87.8 79.5 272.8
02/09 03:20 18.8 46 7.41 6.9 19 24 1014.9 0 16.8 22.8 33.1 86.6 78.1 267.8
02/09 03:10 18.7 47 7.52 7.2 17 20 1014.9 0 17.1 23.0 33.5 87.7 79.5 272.7

Last Refresh: 02-Sep-2026 19:17:16

Bureau of Meteorology